Terminal Aerodrome Forecast
Issued by NWS Cleveland, OH

Home | Current Version | Previous Version | Graphics & Text | Print | Product List | Glossary On
Versions: 1 2 3 4 5 6 7 8 9 10 11 12 13 14 15 16 17 18
000
FTUS41 KCLE 031739
TAFCLE
TAF
KCLE 031739Z 0318/0424 02009KT P6SM SCT120 BKN250
     FM040100 03004KT P6SM BKN120
     FM040800 VRB03KT P6SM BKN250
     FM041500 35008KT P6SM SCT250=

USA.gov is the U.S. government's official web portal to all federal, state and local government web resources and services.